createdAt,value
2018-04-07T00:02:13.112Z,57.50
2018-04-07T00:04:40.811Z,57.60
2018-04-07T00:07:09.324Z,58.00
2018-04-07T00:09:37.029Z,58.00
2018-04-07T00:12:05.008Z,58.20
2018-04-07T00:14:32.721Z,58.50
2018-04-07T00:17:00.405Z,58.60
2018-04-07T00:19:28.140Z,58.60
2018-04-07T00:21:55.843Z,58.60
2018-04-07T00:24:24.332Z,59.10
2018-04-07T00:26:52.021Z,59.10
2018-04-07T00:29:19.753Z,59.30
2018-04-07T00:31:47.489Z,59.40
2018-04-07T00:34:15.180Z,59.50
2018-04-07T00:36:42.905Z,59.60
2018-04-07T00:39:10.579Z,59.60
2018-04-07T00:41:39.044Z,60.10
2018-04-07T00:44:06.742Z,60.00
2018-04-07T00:46:34.468Z,60.20
2018-04-07T00:49:02.211Z,60.40
2018-04-07T00:51:29.996Z,61.60
2018-04-07T00:53:57.765Z,61.10
2018-04-07T00:56:26.316Z,61.20
2018-04-07T00:58:54.897Z,61.40
2018-04-07T01:01:22.634Z,61.40
2018-04-07T01:03:51.201Z,61.90
2018-04-07T01:06:18.974Z,61.80
2018-04-07T01:08:47.839Z,62.40
2018-04-07T01:11:16.402Z,62.90
2018-04-07T01:13:44.168Z,62.70
2018-04-07T01:16:12.170Z,63.00
2018-04-07T01:18:39.924Z,63.00
2018-04-07T01:21:08.478Z,63.30
2018-04-07T01:23:36.313Z,63.30
2018-04-07T01:26:04.844Z,63.60
2018-04-07T01:28:33.451Z,63.50
2018-04-07T01:31:01.201Z,63.80
2018-04-07T01:33:29.015Z,63.90
2018-04-07T01:35:57.572Z,64.50
2018-04-07T01:38:25.386Z,64.40
2018-04-07T01:40:53.174Z,64.50
2018-04-07T01:43:20.987Z,64.60
2018-04-07T01:45:49.530Z,65.00
2018-04-07T01:48:17.289Z,65.10
2018-04-07T01:50:45.858Z,65.60
2018-04-07T01:53:13.610Z,65.50
2018-04-07T01:55:41.417Z,65.60
2018-04-07T01:58:09.230Z,66.00
2018-04-07T02:00:37.779Z,66.30
2018-04-07T02:03:05.570Z,66.50
2018-04-07T02:05:33.341Z,66.70
2018-04-07T02:08:01.885Z,66.70
2018-04-07T02:10:30.050Z,66.80
2018-04-07T02:12:57.996Z,66.80
2018-04-07T02:15:25.797Z,66.90
2018-04-07T02:17:53.594Z,66.90
2018-04-07T02:20:21.427Z,66.80
2018-04-07T02:22:50.206Z,67.10
2018-04-07T02:25:17.871Z,67.00
2018-04-07T02:27:45.523Z,67.30
2018-04-07T02:30:13.934Z,67.70
2018-04-07T02:32:41.607Z,67.70
2018-04-07T02:35:10.006Z,67.80
2018-04-07T02:37:38.415Z,67.90
2018-04-07T02:40:06.855Z,68.00
2018-04-07T02:42:35.294Z,68.30
2018-04-07T02:45:02.945Z,68.10
2018-04-07T02:47:31.348Z,68.60
2018-04-07T02:49:59.026Z,68.50
2018-04-07T02:52:26.644Z,68.70
2018-04-07T02:54:55.062Z,68.80
2018-04-07T02:57:22.683Z,68.80
2018-04-07T02:59:50.359Z,68.90
2018-04-07T03:02:18.009Z,69.00
2018-04-07T03:04:46.435Z,69.40
2018-04-07T03:07:14.089Z,69.40
2018-04-07T03:09:42.491Z,69.60
2018-04-07T03:12:10.951Z,70.40
2018-04-07T03:14:38.566Z,69.60
2018-04-07T03:17:06.238Z,69.70
2018-04-07T03:19:33.888Z,70.00
2018-04-07T03:22:14.191Z,70.00
2018-04-07T03:24:41.819Z,70.10
2018-04-07T03:27:09.457Z,70.20
2018-04-07T03:29:37.096Z,70.70
2018-04-07T03:32:05.284Z,70.30
2018-04-07T03:34:33.007Z,70.50
2018-04-07T03:37:00.708Z,70.50
2018-04-07T03:39:29.216Z,70.40
2018-04-07T03:41:57.708Z,70.40
2018-04-07T03:44:25.449Z,70.40
2018-04-07T03:46:53.285Z,70.40
2018-04-07T03:49:21.022Z,70.30
2018-04-07T03:51:49.527Z,71.00
2018-04-07T03:54:18.265Z,71.30
2018-04-07T03:56:45.988Z,71.20
2018-04-07T03:59:13.673Z,71.40
2018-04-07T04:04:32.559Z,71.50
2018-04-07T04:07:00.182Z,71.50
2018-04-07T04:09:27.844Z,71.60
2018-04-07T04:11:55.541Z,71.60
2018-04-07T04:14:23.320Z,71.80
2018-04-07T04:19:41.540Z,71.90
2018-04-07T04:22:09.174Z,71.80
2018-04-07T04:24:36.816Z,71.90
2018-04-07T04:27:04.468Z,72.00
2018-04-07T04:29:32.862Z,72.10
2018-04-07T04:32:00.547Z,72.10
2018-04-07T04:34:28.183Z,72.80
2018-04-07T04:36:55.879Z,72.30
2018-04-07T04:39:23.534Z,72.40
2018-04-07T04:41:51.956Z,72.40
2018-04-07T04:44:19.585Z,72.40
2018-04-07T04:46:47.243Z,72.40
2018-04-07T04:49:14.906Z,72.40
2018-04-07T04:51:42.498Z,72.60
2018-04-07T04:54:10.161Z,72.70
2018-04-07T04:56:37.791Z,72.70
2018-04-07T04:59:05.479Z,73.00
2018-04-07T05:01:33.175Z,73.10
2018-04-07T05:04:00.798Z,73.30
2018-04-07T05:06:29.230Z,73.40
2018-04-07T05:08:56.892Z,73.30
2018-04-07T05:11:25.298Z,73.50
2018-04-07T05:13:53.727Z,73.50
2018-04-07T05:16:21.382Z,73.50
2018-04-07T05:18:49.802Z,73.60
2018-04-07T05:21:17.418Z,73.60
2018-04-07T05:23:45.208Z,73.70
2018-04-07T05:26:12.845Z,73.60
2018-04-07T05:28:41.258Z,73.50
2018-04-07T05:31:09.639Z,73.70
2018-04-07T05:33:37.318Z,73.60
2018-04-07T05:36:04.956Z,73.70
2018-04-07T05:38:32.621Z,73.80
2018-04-07T05:41:01.064Z,73.80
2018-04-07T05:43:28.698Z,73.80
2018-04-07T05:45:56.388Z,73.90
2018-04-07T05:48:24.025Z,73.90
2018-04-07T05:50:51.722Z,74.00
2018-04-07T05:53:19.384Z,74.00
2018-04-07T05:55:47.004Z,74.10
2018-04-07T05:58:14.683Z,73.90
2018-04-07T06:00:42.315Z,73.90
2018-04-07T06:03:10.735Z,73.90
2018-04-07T06:05:38.336Z,73.90
2018-04-07T06:08:05.994Z,73.80
2018-04-07T06:10:34.406Z,73.50
2018-04-07T06:13:02.043Z,73.50
2018-04-07T06:15:29.709Z,73.30
2018-04-07T06:17:57.343Z,73.10
2018-04-07T06:20:24.995Z,72.80
2018-04-07T06:22:52.642Z,72.00
2018-04-07T06:25:20.304Z,72.20
2018-04-07T06:27:47.960Z,71.80
2018-04-07T06:30:15.587Z,71.50
2018-04-07T06:32:43.999Z,70.70
2018-04-07T06:35:11.644Z,70.70
2018-04-07T06:37:39.282Z,70.10
2018-04-07T06:40:08.017Z,68.10
2018-04-07T06:42:35.634Z,68.10
2018-04-07T06:45:03.297Z,66.60
2018-04-07T06:47:30.927Z,65.50
2018-04-07T06:49:58.554Z,64.50
2018-04-07T06:52:26.183Z,63.80
2018-04-07T06:54:54.613Z,61.50
2018-04-07T06:57:22.286Z,61.50
2018-04-07T06:59:49.915Z,60.10
2018-04-07T07:02:23.438Z,58.20
2018-04-07T07:04:51.835Z,57.30
2018-04-07T07:07:19.454Z,57.20
2018-04-07T07:09:47.046Z,56.30
2018-04-07T07:12:14.708Z,55.40
2018-04-07T07:14:43.134Z,54.20
2018-04-07T07:17:10.762Z,54.20
2018-04-07T07:19:38.421Z,53.50
2018-04-07T07:22:06.057Z,53.10
2018-04-07T07:24:33.704Z,52.50
2018-04-07T07:27:01.375Z,52.10
2018-04-07T07:29:29.026Z,51.40
2018-04-07T07:31:56.695Z,50.90
2018-04-07T07:34:24.311Z,50.30
2018-04-07T07:36:52.716Z,49.00
2018-04-07T07:39:21.130Z,47.70
2018-04-07T07:41:49.555Z,47.30
2018-04-07T07:44:17.326Z,47.30
2018-04-07T07:46:45.758Z,46.50
2018-04-07T07:49:13.435Z,46.40
2018-04-07T07:51:41.051Z,45.80
2018-04-07T07:54:08.704Z,45.80
2018-04-07T07:56:37.115Z,45.10
2018-04-07T07:59:05.568Z,44.60
2018-04-07T08:01:33.179Z,44.60
2018-04-07T08:04:00.825Z,44.40
2018-04-07T08:06:28.536Z,44.10
2018-04-07T08:08:56.195Z,43.40
2018-04-07T08:11:23.854Z,42.60
2018-04-07T08:13:53.043Z,41.90
2018-04-07T08:16:20.677Z,41.70
2018-04-07T08:18:49.073Z,40.30
2018-04-07T08:21:16.702Z,40.20
2018-04-07T08:23:44.340Z,40.00
2018-04-07T08:26:12.038Z,39.40
2018-04-07T08:28:39.675Z,38.60
2018-04-07T08:31:07.384Z,38.00
2018-04-07T08:33:35.096Z,37.50
2018-04-07T08:36:02.831Z,36.90
2018-04-07T08:38:30.511Z,36.20
2018-04-07T08:40:58.171Z,35.60
2018-04-07T08:43:26.640Z,35.90
2018-04-07T08:45:54.289Z,35.50
2018-04-07T08:48:21.950Z,35.30
2018-04-07T08:50:49.651Z,35.00
2018-04-07T08:53:17.299Z,34.20
2018-04-07T08:55:45.099Z,34.20
2018-04-07T08:58:12.731Z,34.10
2018-04-07T09:00:40.366Z,33.90
2018-04-07T09:03:07.982Z,33.90
2018-04-07T09:05:35.659Z,33.30
2018-04-07T09:08:03.295Z,33.40
2018-04-07T09:10:30.922Z,33.30
2018-04-07T09:12:58.571Z,33.10
2018-04-07T09:15:28.564Z,32.80
2018-04-07T09:17:56.259Z,32.40
2018-04-07T09:20:24.670Z,32.10
2018-04-07T09:22:53.111Z,32.20
2018-04-07T09:25:20.741Z,32.10
2018-04-07T09:27:48.373Z,32.00
2018-04-07T09:30:16.983Z,32.50
2018-04-07T09:32:46.841Z,31.70
2018-04-07T09:35:15.002Z,31.40
2018-04-07T09:37:43.794Z,30.70
2018-04-07T09:40:11.459Z,30.70
2018-04-07T09:42:39.113Z,30.70
2018-04-07T09:45:06.777Z,31.10
2018-04-07T09:47:34.475Z,31.20
2018-04-07T09:50:02.111Z,31.10
2018-04-07T09:52:29.759Z,30.70
2018-04-07T09:54:57.375Z,30.80
2018-04-07T09:57:25.026Z,30.40
2018-04-07T09:59:52.713Z,30.00
2018-04-07T10:02:21.248Z,30.00
2018-04-07T10:04:48.912Z,29.90
2018-04-07T10:07:16.544Z,29.80
2018-04-07T10:09:44.210Z,29.60
2018-04-07T10:12:11.837Z,29.10
2018-04-07T10:14:39.514Z,29.20
2018-04-07T10:17:07.907Z,29.50
2018-04-07T10:19:35.615Z,29.30
2018-04-07T10:22:04.291Z,29.20
2018-04-07T10:24:31.927Z,29.20
2018-04-07T10:26:59.581Z,29.00
2018-04-07T10:29:27.316Z,28.70
2018-04-07T10:31:55.023Z,28.30
2018-04-07T10:34:22.659Z,28.30
2018-04-07T10:36:50.303Z,28.40
2018-04-07T10:39:17.907Z,27.70
2018-04-07T10:41:45.609Z,27.60
2018-04-07T10:44:13.263Z,27.40
2018-04-07T10:46:40.899Z,27.20
2018-04-07T10:49:08.558Z,27.20
2018-04-07T10:51:36.203Z,27.20
2018-04-07T10:54:03.884Z,27.20
2018-04-07T10:56:32.349Z,26.90
2018-04-07T10:59:00.008Z,26.90
2018-04-07T11:01:27.673Z,26.90
2018-04-07T11:03:55.314Z,27.20
2018-04-07T11:06:22.971Z,27.20
2018-04-07T11:08:50.599Z,27.00
2018-04-07T11:11:18.299Z,26.60
2018-04-07T11:13:46.715Z,26.30
2018-04-07T11:16:15.116Z,26.10
2018-04-07T11:18:43.521Z,25.60
2018-04-07T11:21:11.927Z,25.70
2018-04-07T11:23:40.361Z,25.80
2018-04-07T11:26:08.029Z,25.70
2018-04-07T11:28:36.025Z,25.50
2018-04-07T11:31:03.750Z,25.40
2018-04-07T11:33:31.450Z,25.30
2018-04-07T11:35:59.105Z,25.30
2018-04-07T11:38:26.736Z,25.40
2018-04-07T11:40:54.398Z,25.30
2018-04-07T11:43:22.520Z,25.30
2018-04-07T11:45:50.190Z,25.40
2018-04-07T11:48:17.803Z,25.70
2018-04-07T11:50:46.243Z,25.70
2018-04-07T11:53:14.639Z,25.90
2018-04-07T11:55:42.677Z,25.80
2018-04-07T11:58:10.317Z,25.30
2018-04-07T12:00:37.946Z,25.00
2018-04-07T12:03:05.585Z,25.00
2018-04-07T12:05:33.217Z,25.10
2018-04-07T12:08:00.923Z,25.00
2018-04-07T12:10:28.591Z,24.60
2018-04-07T12:12:56.209Z,24.60
2018-04-07T12:15:24.152Z,24.60
2018-04-07T12:17:51.795Z,24.90
2018-04-07T12:20:19.519Z,24.90
2018-04-07T12:22:47.131Z,24.60
2018-04-07T12:25:14.799Z,24.70
2018-04-07T12:27:42.429Z,24.90
2018-04-07T12:30:10.102Z,24.90
2018-04-07T12:32:37.730Z,24.70
2018-04-07T12:35:05.435Z,24.70
2018-04-07T12:37:33.864Z,24.40
2018-04-07T12:40:01.507Z,24.40
2018-04-07T12:42:29.203Z,24.60
2018-04-07T12:44:56.833Z,25.00
2018-04-07T12:47:24.509Z,24.60
2018-04-07T12:49:52.106Z,24.20
2018-04-07T12:52:19.772Z,24.30
2018-04-07T12:54:47.430Z,24.00
2018-04-07T12:57:16.823Z,23.90
2018-04-07T12:59:44.450Z,24.10
2018-04-07T13:02:12.052Z,24.10
2018-04-07T13:04:40.506Z,24.00
2018-04-07T13:07:08.145Z,24.00
2018-04-07T13:09:36.569Z,23.60
2018-04-07T13:12:04.210Z,23.50
2018-04-07T13:14:32.501Z,23.30
2018-04-07T13:17:00.186Z,23.50
2018-04-07T13:19:27.844Z,23.90
2018-04-07T13:21:55.923Z,23.50
2018-04-07T13:24:23.519Z,23.30
2018-04-07T13:26:51.168Z,23.20
2018-04-07T13:29:19.586Z,23.40
2018-04-07T13:31:47.214Z,23.90
2018-04-07T13:34:14.863Z,23.30
2018-04-07T13:36:42.484Z,23.40
2018-04-07T13:39:10.154Z,23.40
2018-04-07T13:41:37.748Z,23.40
2018-04-07T13:44:05.431Z,23.40
2018-04-07T13:46:33.119Z,22.90
2018-04-07T13:49:00.785Z,22.90
2018-04-07T13:51:28.441Z,23.00
2018-04-07T13:53:56.550Z,22.70
2018-04-07T13:56:24.302Z,22.50
2018-04-07T13:58:51.906Z,22.30
2018-04-07T14:01:19.567Z,22.40
2018-04-07T14:03:47.233Z,23.00
2018-04-07T14:06:14.843Z,22.30
2018-04-07T14:08:42.541Z,22.30
2018-04-07T14:11:10.205Z,22.70
2018-04-07T14:13:37.850Z,22.80
2018-04-07T14:16:05.539Z,22.60
2018-04-07T14:18:33.244Z,22.30
2018-04-07T14:21:00.939Z,22.20
2018-04-07T14:23:29.362Z,22.00
2018-04-07T14:25:57.024Z,22.00
2018-04-07T14:28:24.654Z,22.00
2018-04-07T14:30:52.344Z,22.00
2018-04-07T14:33:19.981Z,22.00
2018-04-07T14:35:47.618Z,22.20
2018-04-07T14:38:15.248Z,21.80
2018-04-07T14:40:43.672Z,21.90
2018-04-07T14:43:11.327Z,21.90
2018-04-07T14:45:38.973Z,21.80
2018-04-07T14:48:06.627Z,21.80
2018-04-07T14:50:34.255Z,21.50
2018-04-07T14:53:01.915Z,21.70
2018-04-07T14:55:29.568Z,22.10
2018-04-07T14:57:57.199Z,22.40
2018-04-07T15:00:25.681Z,22.30
2018-04-07T15:02:53.599Z,22.40
2018-04-07T15:05:21.286Z,22.30
2018-04-07T15:07:48.933Z,22.10
2018-04-07T15:10:17.340Z,22.20
2018-04-07T15:12:45.751Z,22.00
2018-04-07T15:15:14.194Z,21.80
2018-04-07T15:17:41.842Z,21.70
2018-04-07T15:20:09.721Z,21.20
2018-04-07T15:22:37.390Z,21.10
2018-04-07T15:25:05.035Z,20.90
2018-04-07T15:27:32.715Z,20.80
2018-04-07T15:30:00.377Z,20.80
2018-04-07T15:32:29.235Z,20.90
2018-04-07T15:34:56.923Z,20.90
2018-04-07T15:37:24.638Z,20.80
2018-04-07T15:39:52.315Z,20.90
2018-04-07T15:42:20.013Z,20.80
2018-04-07T15:44:47.773Z,20.50
2018-04-07T15:47:15.456Z,20.40
2018-04-07T15:49:43.070Z,20.40
2018-04-07T15:52:10.759Z,20.50
2018-04-07T15:54:38.378Z,20.60
2018-04-07T15:57:07.006Z,20.70
2018-04-07T15:59:34.658Z,20.80
2018-04-07T16:02:26.171Z,20.80
2018-04-07T16:04:53.831Z,20.60
2018-04-07T16:07:21.541Z,20.60
2018-04-07T16:09:50.474Z,20.70
2018-04-07T16:12:18.239Z,21.10
2018-04-07T16:14:45.956Z,21.20
2018-04-07T16:17:13.703Z,21.30
2018-04-07T16:19:41.355Z,21.60
2018-04-07T16:22:28.200Z,21.40
2018-04-07T16:24:56.648Z,21.20
2018-04-07T16:27:24.399Z,21.30
2018-04-07T16:29:52.819Z,21.20
2018-04-07T16:32:20.520Z,21.10
2018-04-07T16:34:48.955Z,21.30
2018-04-07T16:37:17.038Z,21.30
2018-04-07T16:39:44.800Z,21.40
2018-04-07T16:42:12.556Z,21.50
2018-04-07T16:44:43.515Z,21.60
2018-04-07T16:47:11.235Z,21.70
2018-04-07T16:49:38.915Z,21.70
2018-04-07T16:52:06.534Z,21.80
2018-04-07T16:54:34.284Z,21.80
2018-04-07T16:57:01.928Z,21.80
2018-04-07T16:59:29.606Z,22.00
2018-04-07T17:01:57.447Z,22.30
2018-04-07T17:04:25.597Z,22.50
2018-04-07T17:06:53.620Z,22.70
2018-04-07T17:09:21.255Z,23.10
2018-04-07T17:11:48.952Z,23.60
2018-04-07T17:14:16.567Z,24.10
2018-04-07T17:16:44.219Z,24.50
2018-04-07T17:19:11.814Z,24.80
2018-04-07T17:21:39.731Z,25.10
2018-04-07T17:24:08.140Z,25.70
2018-04-07T17:26:35.830Z,25.80
2018-04-07T17:29:03.501Z,25.90
2018-04-07T17:31:31.128Z,26.10
2018-04-07T17:33:59.556Z,26.70
2018-04-07T17:36:27.291Z,26.70
2018-04-07T17:38:54.943Z,26.80
2018-04-07T17:41:22.568Z,26.90
2018-04-07T17:43:50.227Z,27.10
2018-04-07T17:46:17.919Z,27.30
2018-04-07T17:48:45.607Z,27.50
2018-04-07T17:51:13.267Z,28.80
2018-04-07T17:53:40.866Z,29.50
2018-04-07T17:56:08.498Z,30.00
2018-04-07T17:58:36.148Z,30.80
2018-04-07T18:01:03.831Z,31.30
2018-04-07T18:03:31.483Z,32.10
2018-04-07T18:05:59.919Z,33.50
2018-04-07T18:08:27.585Z,33.50
2018-04-07T18:10:55.283Z,33.80
2018-04-07T18:13:22.940Z,34.10
2018-04-07T18:15:50.573Z,34.70
2018-04-07T18:18:18.227Z,35.40
2018-04-07T18:20:45.877Z,35.90
2018-04-07T18:23:13.554Z,36.60
2018-04-07T18:25:41.215Z,37.50
2018-04-07T18:28:09.037Z,38.10
2018-04-07T18:30:36.675Z,38.60
2018-04-07T18:36:00.463Z,39.60
2018-04-07T18:38:28.142Z,39.60
2018-04-07T18:40:57.078Z,40.60
2018-04-07T18:43:25.865Z,41.10
2018-04-07T18:45:54.329Z,41.60
2018-04-07T18:48:22.092Z,41.60
2018-04-07T18:50:49.770Z,41.90
2018-04-07T18:53:25.569Z,42.50
2018-04-07T18:55:54.275Z,42.80
2018-04-07T18:58:23.447Z,43.10
2018-04-07T19:00:51.253Z,43.00
2018-04-07T19:03:19.003Z,43.00
2018-04-07T19:05:46.698Z,43.40
2018-04-07T19:08:14.428Z,43.60
2018-04-07T19:10:42.187Z,43.80
2018-04-07T19:13:09.889Z,44.20
2018-04-07T19:15:37.829Z,44.50
2018-04-07T19:18:06.231Z,44.60
2018-04-07T19:20:34.865Z,44.40
2018-04-07T19:23:21.284Z,44.40
2018-04-07T19:25:49.073Z,44.20
2018-04-07T19:28:16.759Z,44.20
2018-04-07T19:30:44.539Z,44.60
2018-04-07T19:33:12.205Z,45.20
2018-04-07T19:35:39.918Z,45.40
2018-04-07T19:38:07.701Z,45.80
2018-04-07T19:40:35.410Z,46.10
2018-04-07T19:43:03.951Z,47.30
2018-04-07T19:45:31.713Z,47.20
2018-04-07T19:47:59.527Z,47.60
2018-04-07T19:50:28.122Z,48.10
2018-04-07T19:52:55.931Z,48.00
2018-04-07T19:55:24.473Z,48.50
2018-04-07T19:57:52.158Z,48.50
2018-04-07T20:00:19.902Z,48.60
2018-04-07T20:02:47.617Z,48.90
2018-04-07T20:05:16.062Z,48.80
2018-04-07T20:07:43.769Z,48.70
2018-04-07T20:10:11.535Z,49.20
2018-04-07T20:12:39.229Z,49.80
2018-04-07T20:15:06.951Z,50.20
2018-04-07T20:17:36.698Z,50.60
2018-04-07T20:20:04.650Z,50.60
2018-04-07T20:22:33.398Z,50.80
2018-04-07T20:25:02.383Z,50.80
2018-04-07T20:27:31.994Z,50.90
2018-04-07T20:29:59.710Z,50.90
2018-04-07T20:32:28.185Z,50.90
2018-04-07T20:34:56.256Z,50.80
2018-04-07T20:37:25.035Z,50.80
2018-04-07T20:39:53.040Z,50.80
2018-04-07T20:42:28.469Z,50.90
2018-04-07T20:44:56.994Z,51.00
2018-04-07T20:47:25.512Z,51.20
2018-04-07T20:49:53.168Z,51.20
2018-04-07T20:52:21.603Z,51.60
2018-04-07T20:54:49.419Z,51.50
2018-04-07T20:57:17.248Z,51.70
2018-04-07T20:59:44.874Z,52.50
2018-04-07T21:02:13.246Z,52.70
2018-04-07T21:04:41.065Z,52.70
2018-04-07T21:07:09.454Z,53.00
2018-04-07T21:09:37.230Z,52.90
2018-04-07T21:12:04.902Z,53.10
2018-04-07T21:14:33.304Z,53.40
2018-04-07T21:17:01.115Z,53.40
2018-04-07T21:19:28.746Z,54.10
2018-04-07T21:21:57.190Z,53.80
2018-04-07T21:24:24.819Z,53.80
2018-04-07T21:26:52.422Z,54.00
2018-04-07T21:29:20.838Z,54.30
2018-04-07T21:31:48.460Z,54.30
2018-04-07T21:34:16.127Z,54.50
2018-04-07T21:36:43.774Z,54.50
2018-04-07T21:39:12.194Z,54.80
2018-04-07T21:41:40.604Z,55.20
2018-04-07T21:44:08.980Z,55.40
2018-04-07T21:46:46.595Z,55.50
2018-04-07T21:49:14.253Z,55.80
2018-04-07T21:51:42.349Z,56.00
2018-04-07T21:54:10.374Z,56.20
2018-04-07T21:56:38.040Z,56.40
2018-04-07T21:59:05.730Z,56.70
2018-04-07T22:01:33.378Z,56.70
2018-04-07T22:04:01.092Z,56.70
2018-04-07T22:06:28.736Z,56.90
2018-04-07T22:08:57.203Z,57.80
2018-04-07T22:11:24.846Z,57.80
2018-04-07T22:13:52.523Z,58.00
2018-04-07T22:16:20.914Z,58.00
2018-04-07T22:18:48.538Z,58.00
2018-04-07T22:21:16.179Z,58.10
2018-04-07T22:23:43.830Z,58.30
2018-04-07T22:26:11.521Z,58.50
2018-04-07T22:28:39.149Z,58.60
2018-04-07T22:31:07.703Z,58.80
2018-04-07T22:33:35.359Z,58.70
2018-04-07T22:36:03.064Z,59.00
2018-04-07T22:38:30.702Z,59.20
2018-04-07T22:40:58.341Z,59.20
2018-04-07T22:43:26.019Z,59.30
2018-04-07T22:45:53.662Z,59.30
2018-04-07T22:48:21.300Z,59.40
2018-04-07T22:50:48.968Z,59.40
2018-04-07T22:53:16.578Z,59.80
2018-04-07T22:55:44.228Z,60.10
2018-04-07T22:58:12.642Z,60.50
2018-04-07T23:00:40.306Z,60.50
2018-04-07T23:03:07.931Z,60.70
2018-04-07T23:05:35.575Z,60.70
2018-04-07T23:08:03.211Z,60.70
2018-04-07T23:10:30.821Z,60.40
2018-04-07T23:12:58.505Z,60.80
2018-04-07T23:15:26.141Z,60.80
2018-04-07T23:17:54.568Z,61.10
2018-04-07T23:20:22.186Z,61.10
2018-04-07T23:22:49.860Z,61.40
2018-04-07T23:25:17.493Z,61.50
2018-04-07T23:27:45.863Z,62.10
2018-04-07T23:30:13.480Z,62.10
2018-04-07T23:32:41.887Z,62.90
2018-04-07T23:35:09.521Z,62.10
2018-04-07T23:37:37.139Z,62.50
2018-04-07T23:40:04.806Z,62.80
2018-04-07T23:42:32.443Z,63.10
2018-04-07T23:45:00.901Z,63.50
2018-04-07T23:47:28.587Z,63.50
2018-04-07T23:49:56.232Z,63.70
2018-04-07T23:52:24.644Z,64.30
2018-04-07T23:54:52.251Z,64.30
2018-04-07T23:57:19.903Z,64.40
2018-04-07T23:59:48.306Z,64.70
